Terminal Aerodrome Forecast
Issued by NWS

Home | Current Version | Previous Version | Text Only | Print | Product List | Glossary On
Versions: 1 2 3 4 5 6 7 8 9 10 11 12 13 14 15 16 17 18 19
875
FTUS41 KALY 082324
TAFPSF
TAF
KPSF 082324Z 0900/0924 05006KT 1SM -SN VV011
      TEMPO 0900/0904 3SM -SN OVC008
     FM090400 05004KT P6SM VCSH SCT005 OVC015
     FM092100 VRB03KT P6SM BKN025
     FM092300 VRB03KT P6SM VCSH OVC015=

USA.gov is the U.S. government's official web portal to all federal, state and local government web resources and services.